sensor_id;sensor_type;location;lat;lon;timestamp;pressure;altitude;pressure_sealevel;temperature;humidity
45763;BME280;37512;52.408;13.356;2023-09-07T00:00:39;101800.34;;;26.35;49.15
45763;BME280;37512;52.408;13.356;2023-09-07T00:04:41;101796.00;;;27.02;47.68
45763;BME280;37512;52.408;13.356;2023-09-07T00:08:43;101809.97;;;26.54;49.09
45763;BME280;37512;52.408;13.356;2023-09-07T00:12:45;101802.59;;;26.57;48.59
45763;BME280;37512;52.408;13.356;2023-09-07T00:16:47;101801.28;;;26.45;49.51
45763;BME280;37512;52.408;13.356;2023-09-07T00:20:49;101804.44;;;26.63;49.25
45763;BME280;37512;52.408;13.356;2023-09-07T00:24:50;101806.09;;;25.86;51.44
45763;BME280;37512;52.408;13.356;2023-09-07T00:28:52;101805.47;;;26.11;50.40
45763;BME280;37512;52.408;13.356;2023-09-07T00:32:53;101807.88;;;26.13;50.59
45763;BME280;37512;52.408;13.356;2023-09-07T00:36:55;101799.00;;;25.78;51.48
45763;BME280;37512;52.408;13.356;2023-09-07T00:40:56;101808.63;;;26.00;51.21
45763;BME280;37512;52.408;13.356;2023-09-07T00:44:58;101801.97;;;26.20;50.55
45763;BME280;37512;52.408;13.356;2023-09-07T00:48:59;101801.13;;;25.74;51.55
45763;BME280;37512;52.408;13.356;2023-09-07T00:53:01;101807.88;;;26.13;50.72
45763;BME280;37512;52.408;13.356;2023-09-07T00:57:04;101802.38;;;25.73;52.27
45763;BME280;37512;52.408;13.356;2023-09-07T01:01:06;101804.94;;;25.83;51.62
45763;BME280;37512;52.408;13.356;2023-09-07T01:05:08;101802.00;;;25.54;52.30
45763;BME280;37512;52.408;13.356;2023-09-07T01:09:16;101801.84;;;25.61;52.57
45763;BME280;37512;52.408;13.356;2023-09-07T01:13:19;101792.00;;;25.99;52.08
45763;BME280;37512;52.408;13.356;2023-09-07T01:17:22;101795.19;;;25.84;51.48
45763;BME280;37512;52.408;13.356;2023-09-07T01:21:24;101786.91;;;25.74;52.25
45763;BME280;37512;52.408;13.356;2023-09-07T01:25:26;101791.03;;;25.89;51.45
45763;BME280;37512;52.408;13.356;2023-09-07T01:29:29;101794.03;;;25.98;51.10
45763;BME280;37512;52.408;13.356;2023-09-07T01:33:31;101793.03;;;25.23;53.30
45763;BME280;37512;52.408;13.356;2023-09-07T01:37:33;101793.50;;;25.71;51.87
45763;BME280;37512;52.408;13.356;2023-09-07T01:41:34;101787.72;;;25.74;51.91
45763;BME280;37512;52.408;13.356;2023-09-07T01:45:36;101795.38;;;25.94;51.31
45763;BME280;37512;52.408;13.356;2023-09-07T01:49:37;101790.28;;;25.36;52.95
45763;BME280;37512;52.408;13.356;2023-09-07T01:53:39;101795.34;;;25.08;54.02
45763;BME280;37512;52.408;13.356;2023-09-07T01:57:42;101795.50;;;25.21;53.61
45763;BME280;37512;52.408;13.356;2023-09-07T02:01:43;101796.25;;;25.91;51.06
45763;BME280;37512;52.408;13.356;2023-09-07T02:05:45;101800.44;;;25.53;52.31
45763;BME280;37512;52.408;13.356;2023-09-07T02:09:47;101792.00;;;25.66;51.22
45763;BME280;37512;52.408;13.356;2023-09-07T02:13:48;101799.56;;;25.89;50.90
45763;BME280;37512;52.408;13.356;2023-09-07T02:17:50;101798.66;;;25.92;50.65
45763;BME280;37512;52.408;13.356;2023-09-07T02:21:52;101794.72;;;25.86;50.65
45763;BME280;37512;52.408;13.356;2023-09-07T02:25:53;101791.91;;;25.70;51.27
45763;BME280;37512;52.408;13.356;2023-09-07T02:29:55;101803.44;;;25.62;51.39
45763;BME280;37512;52.408;13.356;2023-09-07T02:33:57;101788.63;;;25.71;51.36
45763;BME280;37512;52.408;13.356;2023-09-07T02:37:58;101796.59;;;25.07;52.70
45763;BME280;37512;52.408;13.356;2023-09-07T02:42:00;101799.34;;;25.47;52.10
45763;BME280;37512;52.408;13.356;2023-09-07T02:46:01;101799.34;;;25.63;51.01
45763;BME280;37512;52.408;13.356;2023-09-07T02:50:03;101800.50;;;25.50;51.40
45763;BME280;37512;52.408;13.356;2023-09-07T02:54:05;101799.72;;;25.13;52.24
45763;BME280;37512;52.408;13.356;2023-09-07T02:58:09;101798.56;;;25.10;52.26
45763;BME280;37512;52.408;13.356;2023-09-07T03:02:10;101796.50;;;25.11;52.68
45763;BME280;37512;52.408;13.356;2023-09-07T03:06:13;101800.59;;;24.73;53.56
45763;BME280;37512;52.408;13.356;2023-09-07T03:10:15;101801.69;;;24.79;53.52
45763;BME280;37512;52.408;13.356;2023-09-07T03:14:16;101793.97;;;24.80;53.40
45763;BME280;37512;52.408;13.356;2023-09-07T03:18:18;101798.91;;;24.56;53.97
45763;BME280;37512;52.408;13.356;2023-09-07T03:22:19;101800.81;;;24.19;55.34
45763;BME280;37512;52.408;13.356;2023-09-07T03:26:21;101802.91;;;24.58;54.01
45763;BME280;37512;52.408;13.356;2023-09-07T03:30:23;101802.91;;;24.78;53.26
45763;BME280;37512;52.408;13.356;2023-09-07T03:34:24;101796.28;;;24.45;54.13
45763;BME280;37512;52.408;13.356;2023-09-07T03:38:26;101794.53;;;24.08;55.53
45763;BME280;37512;52.408;13.356;2023-09-07T03:42:27;101804.63;;;24.32;55.28
45763;BME280;37512;52.408;13.356;2023-09-07T03:46:32;101801.47;;;24.70;53.80
45763;BME280;37512;52.408;13.356;2023-09-07T03:50:34;101803.94;;;24.68;53.28
45763;BME280;37512;52.408;13.356;2023-09-07T03:54:39;101811.41;;;24.58;53.32
45763;BME280;37512;52.408;13.356;2023-09-07T03:58:40;101807.22;;;24.67;53.20
45763;BME280;37512;52.408;13.356;2023-09-07T04:02:42;101803.59;;;24.42;54.42
45763;BME280;37512;52.408;13.356;2023-09-07T04:06:46;101803.78;;;24.75;52.87
45763;BME280;37512;52.408;13.356;2023-09-07T04:10:50;101811.00;;;24.80;52.77
45763;BME280;37512;52.408;13.356;2023-09-07T04:14:52;101806.19;;;25.13;51.65
45763;BME280;37512;52.408;13.356;2023-09-07T04:18:54;101807.47;;;24.92;52.06
45763;BME280;37512;52.408;13.356;2023-09-07T04:22:56;101815.03;;;24.39;53.76
45763;BME280;37512;52.408;13.356;2023-09-07T04:27:01;101818.50;;;24.50;53.14
45763;BME280;37512;52.408;13.356;2023-09-07T04:31:03;101827.28;;;24.56;52.97
45763;BME280;37512;52.408;13.356;2023-09-07T04:35:05;101825.44;;;24.46;53.21
45763;BME280;37512;52.408;13.356;2023-09-07T04:39:07;101819.44;;;23.96;54.95
45763;BME280;37512;52.408;13.356;2023-09-07T04:43:10;101816.16;;;24.21;54.26
45763;BME280;37512;52.408;13.356;2023-09-07T04:47:11;101819.53;;;24.36;53.88
45763;BME280;37512;52.408;13.356;2023-09-07T04:51:13;101823.44;;;24.23;54.38
45763;BME280;37512;52.408;13.356;2023-09-07T04:55:14;101822.16;;;24.04;54.66
45763;BME280;37512;52.408;13.356;2023-09-07T04:59:16;101830.66;;;24.27;54.18
45763;BME280;37512;52.408;13.356;2023-09-07T05:03:18;101835.88;;;24.52;53.41
45763;BME280;37512;52.408;13.356;2023-09-07T05:07:19;101833.16;;;24.21;54.68
45763;BME280;37512;52.408;13.356;2023-09-07T05:11:21;101831.69;;;24.37;53.57
45763;BME280;37512;52.408;13.356;2023-09-07T05:15:23;101833.91;;;24.49;53.59
45763;BME280;37512;52.408;13.356;2023-09-07T05:19:24;101830.94;;;24.56;53.51
45763;BME280;37512;52.408;13.356;2023-09-07T05:23:26;101837.06;;;23.84;55.50
45763;BME280;37512;52.408;13.356;2023-09-07T05:27:28;101833.41;;;24.54;54.30
45763;BME280;37512;52.408;13.356;2023-09-07T05:31:30;101837.91;;;24.52;53.80
45763;BME280;37512;52.408;13.356;2023-09-07T05:35:31;101843.38;;;24.62;53.61
45763;BME280;37512;52.408;13.356;2023-09-07T05:39:36;101835.06;;;24.92;53.16
45763;BME280;37512;52.408;13.356;2023-09-07T05:43:38;101847.63;;;25.11;52.23
45763;BME280;37512;52.408;13.356;2023-09-07T05:47:40;101855.72;;;25.12;52.71
45763;BME280;37512;52.408;13.356;2023-09-07T05:51:41;101851.22;;;24.95;53.16
45763;BME280;37512;52.408;13.356;2023-09-07T05:55:43;101867.91;;;25.49;51.94
45763;BME280;37512;52.408;13.356;2023-09-07T05:59:45;101852.75;;;25.72;51.53
45763;BME280;37512;52.408;13.356;2023-09-07T06:03:46;101867.97;;;25.82;51.04
45763;BME280;37512;52.408;13.356;2023-09-07T06:07:48;101870.19;;;25.91;51.17
45763;BME280;37512;52.408;13.356;2023-09-07T06:11:50;101868.06;;;26.73;49.11
45763;BME280;37512;52.408;13.356;2023-09-07T06:15:51;101869.25;;;25.61;51.60
45763;BME280;37512;52.408;13.356;2023-09-07T06:19:54;101864.63;;;26.49;49.84
45763;BME280;37512;52.408;13.356;2023-09-07T06:23:57;101863.56;;;26.43;49.66
45763;BME280;37512;52.408;13.356;2023-09-07T06:27:59;101862.88;;;26.55;49.07
45763;BME280;37512;52.408;13.356;2023-09-07T06:32:01;101865.25;;;26.57;48.63
45763;BME280;37512;52.408;13.356;2023-09-07T06:36:02;101872.06;;;26.88;47.83
45763;BME280;37512;52.408;13.356;2023-09-07T06:40:04;101869.91;;;26.92;47.66
45763;BME280;37512;52.408;13.356;2023-09-07T06:44:06;101868.41;;;27.30;47.50
45763;BME280;37512;52.408;13.356;2023-09-07T06:48:08;101867.41;;;27.24;47.52
45763;BME280;37512;52.408;13.356;2023-09-07T06:52:09;101875.41;;;27.42;46.80
45763;BME280;37512;52.408;13.356;2023-09-07T06:56:11;101876.88;;;27.33;47.48
45763;BME280;37512;52.408;13.356;2023-09-07T07:00:13;101878.00;;;27.74;46.61
45763;BME280;37512;52.408;13.356;2023-09-07T07:04:15;101882.44;;;27.75;46.66
45763;BME280;37512;52.408;13.356;2023-09-07T07:08:17;101884.81;;;28.15;45.75
45763;BME280;37512;52.408;13.356;2023-09-07T07:12:19;101881.56;;;28.39;45.16
45763;BME280;37512;52.408;13.356;2023-09-07T07:16:22;101883.41;;;28.33;45.42
45763;BME280;37512;52.408;13.356;2023-09-07T07:20:24;101878.78;;;28.83;44.97
45763;BME280;37512;52.408;13.356;2023-09-07T07:24:25;101882.63;;;28.67;44.69
45763;BME280;37512;52.408;13.356;2023-09-07T07:28:27;101890.91;;;28.96;43.85
45763;BME280;37512;52.408;13.356;2023-09-07T07:32:28;101883.81;;;29.23;42.36
45763;BME280;37512;52.408;13.356;2023-09-07T07:36:30;101886.94;;;29.78;41.17
45763;BME280;37512;52.408;13.356;2023-09-07T07:40:34;101888.75;;;29.54;42.61
45763;BME280;37512;52.408;13.356;2023-09-07T07:44:35;101891.53;;;27.19;46.66
45763;BME280;37512;52.408;13.356;2023-09-07T07:48:38;101890.97;;;26.37;49.27
45763;BME280;37512;52.408;13.356;2023-09-07T07:52:39;101882.63;;;26.75;48.29
45763;BME280;37512;52.408;13.356;2023-09-07T07:56:42;101880.53;;;26.63;47.92
45763;BME280;37512;52.408;13.356;2023-09-07T08:00:43;101881.38;;;27.18;46.86
45763;BME280;37512;52.408;13.356;2023-09-07T08:04:49;101881.38;;;27.18;46.71
45763;BME280;37512;52.408;13.356;2023-09-07T08:08:51;101880.22;;;27.03;46.57
45763;BME280;37512;52.408;13.356;2023-09-07T08:12:54;101882.81;;;27.52;45.67
45763;BME280;37512;52.408;13.356;2023-09-07T08:16:57;101894.88;;;27.30;46.80
45763;BME280;37512;52.408;13.356;2023-09-07T08:20:59;101891.81;;;27.50;45.21
45763;BME280;37512;52.408;13.356;2023-09-07T08:25:00;101894.88;;;28.07;44.92
45763;BME280;37512;52.408;13.356;2023-09-07T08:29:02;101887.16;;;27.95;44.71
45763;BME280;37512;52.408;13.356;2023-09-07T08:33:07;101894.88;;;28.07;42.29
45763;BME280;37512;52.408;13.356;2023-09-07T08:37:09;101890.38;;;28.67;42.43
45763;BME280;37512;52.408;13.356;2023-09-07T08:41:11;101886.13;;;28.93;42.15
45763;BME280;37512;52.408;13.356;2023-09-07T08:45:18;101884.63;;;29.02;41.49
45763;BME280;37512;52.408;13.356;2023-09-07T08:49:23;101883.75;;;29.14;40.01
45763;BME280;37512;52.408;13.356;2023-09-07T08:53:25;101882.19;;;29.85;39.62
45763;BME280;37512;52.408;13.356;2023-09-07T08:57:27;101880.88;;;31.52;36.15
45763;BME280;37512;52.408;13.356;2023-09-07T09:01:32;101876.28;;;32.89;35.35
45763;BME280;37512;52.408;13.356;2023-09-07T09:05:34;101887.97;;;33.45;32.64
45763;BME280;37512;52.408;13.356;2023-09-07T09:09:37;101890.69;;;33.19;32.55
45763;BME280;37512;52.408;13.356;2023-09-07T09:13:40;101895.56;;;33.28;32.58
45763;BME280;37512;52.408;13.356;2023-09-07T09:17:42;101890.34;;;33.62;32.72
45763;BME280;37512;52.408;13.356;2023-09-07T09:21:44;101886.56;;;33.70;33.15
45763;BME280;37512;52.408;13.356;2023-09-07T09:25:49;101884.94;;;33.84;31.59
45763;BME280;37512;52.408;13.356;2023-09-07T09:29:51;101880.44;;;33.63;31.38
45763;BME280;37512;52.408;13.356;2023-09-07T09:33:52;101878.00;;;34.32;30.87
45763;BME280;37512;52.408;13.356;2023-09-07T09:37:55;101867.69;;;34.25;31.72
45763;BME280;37512;52.408;13.356;2023-09-07T09:42:00;101873.44;;;34.05;31.13
45763;BME280;37512;52.408;13.356;2023-09-07T09:46:02;101870.66;;;34.31;31.40
45763;BME280;37512;52.408;13.356;2023-09-07T09:50:10;101864.53;;;34.23;31.69
45763;BME280;37512;52.408;13.356;2023-09-07T09:54:12;101864.63;;;34.75;30.79
45763;BME280;37512;52.408;13.356;2023-09-07T09:58:16;101856.53;;;33.92;31.73
45763;BME280;37512;52.408;13.356;2023-09-07T10:02:20;101857.72;;;33.65;31.05
45763;BME280;37512;52.408;13.356;2023-09-07T10:06:24;101847.53;;;35.24;29.68
45763;BME280;37512;52.408;13.356;2023-09-07T10:10:33;101851.94;;;35.57;28.71
45763;BME280;37512;52.408;13.356;2023-09-07T10:14:42;101856.88;;;35.13;29.05
45763;BME280;37512;52.408;13.356;2023-09-07T10:18:46;101849.94;;;34.53;29.63
45763;BME280;37512;52.408;13.356;2023-09-07T10:22:48;101843.53;;;35.96;27.61
45763;BME280;37512;52.408;13.356;2023-09-07T10:27:03;101859.84;;;35.25;27.48
45763;BME280;37512;52.408;13.356;2023-09-07T10:31:12;101843.50;;;35.48;27.65
45763;BME280;37512;52.408;13.356;2023-09-07T10:35:19;101843.78;;;33.99;28.12
45763;BME280;37512;52.408;13.356;2023-09-07T10:39:23;101834.41;;;35.60;26.55
45763;BME280;37512;52.408;13.356;2023-09-07T10:43:33;101840.13;;;35.98;26.91
45763;BME280;37512;52.408;13.356;2023-09-07T10:47:40;101851.69;;;33.33;27.98
45763;BME280;37512;52.408;13.356;2023-09-07T10:51:43;101836.63;;;36.48;25.67
45763;BME280;37512;52.408;13.356;2023-09-07T10:55:45;101833.84;;;36.05;24.73
45763;BME280;37512;52.408;13.356;2023-09-07T10:59:47;101835.66;;;37.47;25.07
45763;BME280;37512;52.408;13.356;2023-09-07T11:03:48;101837.00;;;37.18;24.89
45763;BME280;37512;52.408;13.356;2023-09-07T11:07:50;101834.09;;;37.18;24.67
45763;BME280;37512;52.408;13.356;2023-09-07T11:11:52;101826.72;;;36.77;25.36
45763;BME280;37512;52.408;13.356;2023-09-07T11:15:55;101827.78;;;37.19;25.18
45763;BME280;37512;52.408;13.356;2023-09-07T11:19:57;101830.94;;;34.61;28.92
45763;BME280;37512;52.408;13.356;2023-09-07T11:23:58;101815.94;;;36.89;25.86
45763;BME280;37512;52.408;13.356;2023-09-07T11:28:02;101810.91;;;37.40;25.35
45763;BME280;37512;52.408;13.356;2023-09-07T11:32:08;101814.59;;;37.52;25.19
45763;BME280;37512;52.408;13.356;2023-09-07T11:36:10;101814.31;;;37.73;24.26
45763;BME280;37512;52.408;13.356;2023-09-07T11:40:12;101806.13;;;38.29;24.04
45763;BME280;37512;52.408;13.356;2023-09-07T11:44:15;101809.38;;;37.00;24.60
45763;BME280;37512;52.408;13.356;2023-09-07T11:48:16;101805.97;;;36.96;25.25
45763;BME280;37512;52.408;13.356;2023-09-07T11:52:18;101806.69;;;37.58;23.89
45763;BME280;37512;52.408;13.356;2023-09-07T11:56:20;101804.56;;;36.46;25.55
45763;BME280;37512;52.408;13.356;2023-09-07T12:00:22;101799.63;;;37.31;23.32
45763;BME280;37512;52.408;13.356;2023-09-07T12:04:23;101798.78;;;35.75;25.20
45763;BME280;37512;52.408;13.356;2023-09-07T12:08:25;101797.59;;;38.01;23.99
45763;BME280;37512;52.408;13.356;2023-09-07T12:12:26;101806.19;;;38.24;23.31
45763;BME280;37512;52.408;13.356;2023-09-07T12:16:28;101791.91;;;37.73;24.65
45763;BME280;37512;52.408;13.356;2023-09-07T12:20:30;101797.50;;;37.43;24.16
45763;BME280;37512;52.408;13.356;2023-09-07T12:24:32;101792.84;;;38.04;23.24
45763;BME280;37512;52.408;13.356;2023-09-07T12:28:33;101800.91;;;37.47;23.83
45763;BME280;37512;52.408;13.356;2023-09-07T12:32:35;101799.75;;;37.90;23.40
45763;BME280;37512;52.408;13.356;2023-09-07T12:36:37;101798.44;;;38.43;23.56
45763;BME280;37512;52.408;13.356;2023-09-07T12:40:38;101803.97;;;38.47;23.30
45763;BME280;37512;52.408;13.356;2023-09-07T12:44:40;101799.22;;;38.38;22.28
45763;BME280;37512;52.408;13.356;2023-09-07T12:48:42;101797.16;;;39.35;20.65
45763;BME280;37512;52.408;13.356;2023-09-07T12:52:44;101788.78;;;38.24;21.86
45763;BME280;37512;52.408;13.356;2023-09-07T12:56:46;101785.91;;;38.96;21.38
45763;BME280;37512;52.408;13.356;2023-09-07T13:00:48;101775.06;;;39.02;21.66
45763;BME280;37512;52.408;13.356;2023-09-07T13:04:49;101781.63;;;38.72;22.00
45763;BME280;37512;52.408;13.356;2023-09-07T13:08:51;101772.97;;;39.51;21.36
45763;BME280;37512;52.408;13.356;2023-09-07T13:12:52;101772.72;;;39.25;21.60
45763;BME280;37512;52.408;13.356;2023-09-07T13:16:54;101766.28;;;38.77;21.55
45763;BME280;37512;52.408;13.356;2023-09-07T13:20:57;101763.88;;;38.51;22.68
45763;BME280;37512;52.408;13.356;2023-09-07T13:25:03;101754.00;;;38.65;21.98
45763;BME280;37512;52.408;13.356;2023-09-07T13:29:06;101760.97;;;38.81;22.34
45763;BME280;37512;52.408;13.356;2023-09-07T13:33:08;101753.19;;;39.50;20.60
45763;BME280;37512;52.408;13.356;2023-09-07T13:37:10;101746.97;;;40.41;20.56
45763;BME280;37512;52.408;13.356;2023-09-07T13:41:12;101739.66;;;40.15;21.56
45763;BME280;37512;52.408;13.356;2023-09-07T13:45:13;101748.59;;;38.45;21.76
45763;BME280;37512;52.408;13.356;2023-09-07T13:49:15;101741.88;;;38.61;21.56
45763;BME280;37512;52.408;13.356;2023-09-07T13:53:16;101737.78;;;38.10;22.08
45763;BME280;37512;52.408;13.356;2023-09-07T13:57:18;101740.13;;;39.38;21.00
45763;BME280;37512;52.408;13.356;2023-09-07T14:01:22;101733.00;;;39.39;20.98
45763;BME280;37512;52.408;13.356;2023-09-07T14:05:25;101726.47;;;39.08;21.37
45763;BME280;37512;52.408;13.356;2023-09-07T14:09:26;101723.56;;;39.32;21.60
45763;BME280;37512;52.408;13.356;2023-09-07T14:13:28;101722.75;;;39.32;22.09
45763;BME280;37512;52.408;13.356;2023-09-07T14:17:30;101726.75;;;38.38;22.35
45763;BME280;37512;52.408;13.356;2023-09-07T14:21:32;101720.88;;;39.78;21.72
45763;BME280;37512;52.408;13.356;2023-09-07T14:25:34;101721.84;;;39.43;22.44
45763;BME280;37512;52.408;13.356;2023-09-07T14:29:36;101725.34;;;38.15;24.21
45763;BME280;37512;52.408;13.356;2023-09-07T14:33:38;101720.31;;;38.21;24.49
45763;BME280;37512;52.408;13.356;2023-09-07T14:37:40;101724.44;;;38.31;23.35
45763;BME280;37512;52.408;13.356;2023-09-07T14:41:42;101727.09;;;38.29;23.28
45763;BME280;37512;52.408;13.356;2023-09-07T14:45:44;101720.09;;;38.79;22.41
45763;BME280;37512;52.408;13.356;2023-09-07T14:49:46;101709.25;;;38.19;23.49
45763;BME280;37512;52.408;13.356;2023-09-07T14:53:48;101713.25;;;38.46;22.81
45763;BME280;37512;52.408;13.356;2023-09-07T14:57:49;101714.63;;;38.40;22.84
45763;BME280;37512;52.408;13.356;2023-09-07T15:01:51;101707.72;;;38.13;22.63
45763;BME280;37512;52.408;13.356;2023-09-07T15:06:04;101709.41;;;38.33;21.57
45763;BME280;37512;52.408;13.356;2023-09-07T15:10:06;101713.09;;;38.33;21.96
45763;BME280;37512;52.408;13.356;2023-09-07T15:14:09;101705.59;;;38.13;22.07
45763;BME280;37512;52.408;13.356;2023-09-07T15:18:11;101702.84;;;37.15;22.85
45763;BME280;37512;52.408;13.356;2023-09-07T15:22:14;101701.81;;;37.07;23.06
45763;BME280;37512;52.408;13.356;2023-09-07T15:26:15;101692.88;;;36.94;23.20
45763;BME280;37512;52.408;13.356;2023-09-07T15:30:17;101689.88;;;35.92;23.99
45763;BME280;37512;52.408;13.356;2023-09-07T15:34:19;101692.81;;;36.03;24.62
45763;BME280;37512;52.408;13.356;2023-09-07T15:38:21;101683.44;;;36.76;24.06
45763;BME280;37512;52.408;13.356;2023-09-07T15:42:24;101676.31;;;36.21;24.91
45763;BME280;37512;52.408;13.356;2023-09-07T15:46:27;101673.44;;;36.32;24.51
45763;BME280;37512;52.408;13.356;2023-09-07T15:50:29;101672.19;;;35.56;25.41
45763;BME280;37512;52.408;13.356;2023-09-07T15:54:31;101671.00;;;36.02;24.51
45763;BME280;37512;52.408;13.356;2023-09-07T15:58:34;101672.91;;;36.17;24.83
45763;BME280;37512;52.408;13.356;2023-09-07T16:02:37;101675.53;;;36.20;24.30
45763;BME280;37512;52.408;13.356;2023-09-07T16:06:43;101674.34;;;35.73;24.00
45763;BME280;37512;52.408;13.356;2023-09-07T16:10:45;101668.84;;;35.80;24.63
45763;BME280;37512;52.408;13.356;2023-09-07T16:14:46;101666.50;;;35.79;24.50
45763;BME280;37512;52.408;13.356;2023-09-07T16:18:49;101666.59;;;36.47;23.82
45763;BME280;37512;52.408;13.356;2023-09-07T16:23:09;101670.00;;;36.79;24.28
45763;BME280;37512;52.408;13.356;2023-09-07T16:27:32;101671.31;;;36.83;23.37
45763;BME280;37512;52.408;13.356;2023-09-07T16:31:49;101665.16;;;35.69;24.75
45763;BME280;37512;52.408;13.356;2023-09-07T16:35:52;101667.38;;;36.19;24.64
45763;BME280;37512;52.408;13.356;2023-09-07T16:39:55;101664.41;;;35.85;24.72
45763;BME280;37512;52.408;13.356;2023-09-07T16:43:57;101664.50;;;36.47;24.11
45763;BME280;37512;52.408;13.356;2023-09-07T16:48:02;101660.28;;;36.42;24.13
45763;BME280;37512;52.408;13.356;2023-09-07T16:52:21;101668.91;;;35.97;24.74
45763;BME280;37512;52.408;13.356;2023-09-07T16:56:23;101661.53;;;35.91;25.07
45763;BME280;37512;52.408;13.356;2023-09-07T17:00:28;101659.53;;;35.43;25.55
45763;BME280;37512;52.408;13.356;2023-09-07T17:04:32;101655.69;;;35.63;25.70
45763;BME280;37512;52.408;13.356;2023-09-07T17:08:34;101653.44;;;34.54;26.53
45763;BME280;37512;52.408;13.356;2023-09-07T17:12:37;101654.69;;;34.74;26.86
45763;BME280;37512;52.408;13.356;2023-09-07T17:16:38;101651.75;;;34.68;26.89
45763;BME280;37512;52.408;13.356;2023-09-07T17:20:42;101653.16;;;34.21;27.46
45763;BME280;37512;52.408;13.356;2023-09-07T17:24:43;101659.59;;;33.63;28.99
45763;BME280;37512;52.408;13.356;2023-09-07T17:28:45;101648.09;;;34.42;27.66
45763;BME280;37512;52.408;13.356;2023-09-07T17:32:49;101656.50;;;33.26;29.52
45763;BME280;37512;52.408;13.356;2023-09-07T17:36:51;101657.34;;;33.32;30.37
45763;BME280;37512;52.408;13.356;2023-09-07T17:40:53;101654.41;;;33.06;30.67
45763;BME280;37512;52.408;13.356;2023-09-07T17:44:54;101658.19;;;31.93;31.32
45763;BME280;37512;52.408;13.356;2023-09-07T17:48:56;101661.34;;;32.99;31.28
45763;BME280;37512;52.408;13.356;2023-09-07T17:52:58;101660.59;;;33.04;30.94
45763;BME280;37512;52.408;13.356;2023-09-07T17:56:59;101662.50;;;32.42;31.64
45763;BME280;37512;52.408;13.356;2023-09-07T18:01:02;101667.63;;;31.94;31.80
45763;BME280;37512;52.408;13.356;2023-09-07T18:05:03;101666.47;;;32.30;31.56
45763;BME280;37512;52.408;13.356;2023-09-07T18:09:05;101670.59;;;31.60;33.38
45763;BME280;37512;52.408;13.356;2023-09-07T18:13:10;101677.88;;;32.39;32.61
45763;BME280;37512;52.408;13.356;2023-09-07T18:17:12;101679.09;;;31.94;32.65
45763;BME280;37512;52.408;13.356;2023-09-07T18:21:13;101687.41;;;31.92;32.43
45763;BME280;37512;52.408;13.356;2023-09-07T18:25:15;101687.75;;;30.88;33.74
45763;BME280;37512;52.408;13.356;2023-09-07T18:29:17;101690.84;;;30.66;34.23
45763;BME280;37512;52.408;13.356;2023-09-07T18:33:18;101686.69;;;31.34;33.92
45763;BME280;37512;52.408;13.356;2023-09-07T18:37:21;101691.84;;;30.96;34.44
45763;BME280;37512;52.408;13.356;2023-09-07T18:41:23;101694.47;;;31.42;34.39
45763;BME280;37512;52.408;13.356;2023-09-07T18:45:25;101691.91;;;31.44;34.54
45763;BME280;37512;52.408;13.356;2023-09-07T18:49:30;101697.44;;;31.24;35.01
45763;BME280;37512;52.408;13.356;2023-09-07T18:53:31;101696.66;;;30.81;35.44
45763;BME280;37512;52.408;13.356;2023-09-07T18:57:33;101697.22;;;30.52;35.78
45763;BME280;37512;52.408;13.356;2023-09-07T19:01:34;101701.25;;;30.45;36.05
45763;BME280;37512;52.408;13.356;2023-09-07T19:05:36;101704.13;;;30.17;36.44
45763;BME280;37512;52.408;13.356;2023-09-07T19:09:38;101707.63;;;30.12;37.14
45763;BME280;37512;52.408;13.356;2023-09-07T19:13:39;101706.09;;;30.72;36.57
45763;BME280;37512;52.408;13.356;2023-09-07T19:17:41;101700.69;;;30.65;37.26
45763;BME280;37512;52.408;13.356;2023-09-07T19:21:43;101713.56;;;30.70;36.87
45763;BME280;37512;52.408;13.356;2023-09-07T19:25:44;101699.78;;;30.59;36.99
45763;BME280;37512;52.408;13.356;2023-09-07T19:29:46;101705.28;;;30.29;36.92
45763;BME280;37512;52.408;13.356;2023-09-07T19:33:52;101708.94;;;29.74;37.61
45763;BME280;37512;52.408;13.356;2023-09-07T19:37:54;101709.56;;;30.15;37.61
45763;BME280;37512;52.408;13.356;2023-09-07T19:41:55;101702.56;;;30.07;37.84
45763;BME280;37512;52.408;13.356;2023-09-07T19:45:58;101711.16;;;29.98;37.85
45763;BME280;37512;52.408;13.356;2023-09-07T19:49:59;101704.16;;;29.90;37.96
45763;BME280;37512;52.408;13.356;2023-09-07T19:54:01;101703.53;;;30.04;38.18
45763;BME280;37512;52.408;13.356;2023-09-07T19:58:03;101704.88;;;29.53;38.70
45763;BME280;37512;52.408;13.356;2023-09-07T20:02:05;101700.97;;;30.06;37.80
45763;BME280;37512;52.408;13.356;2023-09-07T20:06:07;101703.34;;;29.89;38.47
45763;BME280;37512;52.408;13.356;2023-09-07T20:10:10;101684.41;;;30.10;38.18
45763;BME280;37512;52.408;13.356;2023-09-07T20:14:11;101699.03;;;29.57;38.76
45763;BME280;37512;52.408;13.356;2023-09-07T20:18:13;101700.66;;;29.95;38.12
45763;BME280;37512;52.408;13.356;2023-09-07T20:22:17;101698.22;;;29.47;38.78
45763;BME280;37512;52.408;13.356;2023-09-07T20:26:19;101694.25;;;28.95;39.33
45763;BME280;37512;52.408;13.356;2023-09-07T20:30:21;101700.28;;;29.56;39.08
45763;BME280;37512;52.408;13.356;2023-09-07T20:34:22;101698.34;;;29.34;39.53
45763;BME280;37512;52.408;13.356;2023-09-07T20:38:24;101698.50;;;28.90;40.08
45763;BME280;37512;52.408;13.356;2023-09-07T20:42:25;101698.47;;;28.81;40.08
45763;BME280;37512;52.408;13.356;2023-09-07T20:46:27;101694.47;;;29.10;39.45
45763;BME280;37512;52.408;13.356;2023-09-07T20:50:29;101682.84;;;28.64;40.34